Time;durP1;ratioP1;P1;durP2;ratioP2;P2;SDS_P1;SDS_P2;PMS_P1;PMS_P2;Temp;Humidity;BMP_temperature;BMP_pressure;BME280_temperature;BME280_humidity;BME280_pressure;Samples;Min_cycle;Max_cycle;Signal;HPM_P1;HPM_P2
2021/03/01 00:00:06;;;;;;;8.32;5.50;;;8.10;99.90;;;;;;5032669;28;20189;-78
2021/03/01 00:02:35;;;;;;;9.93;5.97;;;8.10;99.90;;;;;;5015421;28;20209;-78
2021/03/01 00:05:01;;;;;;;8.10;6.75;;;8.10;99.90;;;;;;5033019;28;20661;-78
2021/03/01 00:07:30;;;;;;;8.85;6.28;;;8.10;99.90;;;;;;5015580;28;20189;-78
2021/03/01 00:09:56;;;;;;;7.00;5.97;;;8.10;99.90;;;;;;5014712;28;20351;-78
2021/03/01 00:12:22;;;;;;;7.90;5.60;;;8.10;99.90;;;;;;5015138;28;20250;-78
2021/03/01 00:14:48;;;;;;;8.57;6.13;;;8.10;99.90;;;;;;5033053;28;20537;-78
2021/03/01 00:17:13;;;;;;;8.07;5.50;;;8.10;99.90;;;;;;5014892;28;20205;-78
2021/03/01 00:19:39;;;;;;;9.47;6.90;;;8.00;99.90;;;;;;5033065;28;20194;-79
2021/03/01 00:22:07;;;;;;;8.35;6.00;;;8.00;99.90;;;;;;5015489;28;20598;-79
2021/03/01 00:24:32;;;;;;;8.43;5.77;;;8.00;99.90;;;;;;5032998;28;20169;-77
2021/03/01 00:26:58;;;;;;;6.03;4.60;;;8.00;99.90;;;;;;5032603;28;20162;-79
2021/03/01 00:29:24;;;;;;;8.57;5.60;;;8.00;99.90;;;;;;5014866;28;20233;-77
2021/03/01 00:31:49;;;;;;;7.30;5.87;;;8.00;99.90;;;;;;5032943;28;20189;-79
2021/03/01 00:34:15;;;;;;;6.00;5.07;;;7.90;99.90;;;;;;5033756;28;20161;-79
2021/03/01 00:36:41;;;;;;;7.87;5.80;;;7.90;99.90;;;;;;5032563;28;20182;-79
2021/03/01 00:39:06;;;;;;;8.80;5.50;;;7.90;99.90;;;;;;5033254;28;20192;-79
2021/03/01 00:41:32;;;;;;;8.40;6.87;;;7.90;99.90;;;;;;5009746;28;20545;-79
2021/03/01 00:43:58;;;;;;;7.83;6.73;;;7.90;99.90;;;;;;5034308;28;20583;-78
2021/03/01 00:46:23;;;;;;;9.87;5.70;;;7.90;99.90;;;;;;5052331;28;20180;-79
2021/03/01 00:48:49;;;;;;;7.60;5.63;;;7.90;99.90;;;;;;5033808;28;20228;-79
2021/03/01 00:51:15;;;;;;;7.17;4.83;;;7.90;99.90;;;;;;5034489;28;20568;-79
2021/03/01 00:53:41;;;;;;;6.83;4.70;;;7.90;99.90;;;;;;5034237;28;20169;-79
2021/03/01 00:56:06;;;;;;;5.13;4.63;;;7.90;99.90;;;;;;5052072;28;20192;-80
2021/03/01 00:58:32;;;;;;;5.43;4.90;;;7.90;99.90;;;;;;5033712;28;20185;-79
2021/03/01 01:00:58;;;;;;;7.77;4.70;;;7.90;99.90;;;;;;5034176;28;20230;-79
2021/03/01 01:03:25;;;;;;;6.70;4.70;;;7.90;99.90;;;;;;5033957;28;20698;-79
2021/03/01 01:06:17;;;;;;;10.73;5.75;;;7.90;99.90;;;;;;5031835;28;20201;-79
2021/03/01 01:08:43;;;;;;;6.30;5.40;;;7.90;99.90;;;;;;5051150;28;20200;-77
2021/03/01 01:11:09;;;;;;;7.47;4.63;;;8.00;99.90;;;;;;5052525;28;20630;-78
2021/03/01 01:13:37;;;;;;;7.37;4.37;;;8.00;99.90;;;;;;5052057;28;21129;-78
2021/03/01 01:16:06;;;;;;;5.45;4.93;;;8.00;99.90;;;;;;5033778;28;20201;-79
2021/03/01 01:18:32;;;;;;;5.10;4.45;;;8.00;99.90;;;;;;5033602;28;20181;-79
2021/03/01 01:20:57;;;;;;;6.87;4.47;;;7.90;99.90;;;;;;5051632;28;20171;-78
2021/03/01 01:23:23;;;;;;;5.43;4.40;;;7.90;99.90;;;;;;5033891;28;20618;-79
2021/03/01 01:25:49;;;;;;;7.73;4.90;;;7.90;99.90;;;;;;5051630;28;20193;-80
2021/03/01 01:28:15;;;;;;;7.27;4.57;;;7.90;99.90;;;;;;5051387;28;20285;-79
2021/03/01 01:30:41;;;;;;;4.73;4.10;;;7.80;99.90;;;;;;5033220;28;20596;-79
2021/03/01 01:33:07;;;;;;;7.60;5.45;;;7.80;99.90;;;;;;5033730;28;20202;-80
2021/03/01 01:35:32;;;;;;;6.40;4.80;;;7.70;99.90;;;;;;5051567;28;20640;-79
2021/03/01 01:37:58;;;;;;;6.17;5.37;;;7.60;99.90;;;;;;5051297;28;20568;-79
2021/03/01 01:40:24;;;;;;;7.67;5.23;;;7.60;99.90;;;;;;5051383;28;21146;-79
2021/03/01 01:42:51;;;;;;;6.67;5.30;;;7.50;99.90;;;;;;5033788;28;20168;-79
2021/03/01 01:45:20;;;;;;;8.05;5.53;;;7.50;99.90;;;;;;5051395;28;20226;-78
2021/03/01 01:47:48;;;;;;;7.90;5.75;;;7.50;99.90;;;;;;5051431;28;20291;-79
2021/03/01 01:50:14;;;;;;;9.00;6.05;;;7.40;99.90;;;;;;5033688;28;20184;-79
2021/03/01 01:52:41;;;;;;;11.65;6.05;;;7.40;99.90;;;;;;5033724;28;20169;-79
2021/03/01 01:55:09;;;;;;;6.35;4.80;;;7.30;99.90;;;;;;5051306;28;20306;-79
2021/03/01 01:57:36;;;;;;;9.82;5.90;;;7.30;99.90;;;;;;5051240;28;20259;-78
2021/03/01 02:00:07;;;;;;;6.20;4.75;;;7.20;99.90;;;;;;5050693;28;20254;-78
2021/03/01 02:02:34;;;;;;;6.90;4.88;;;7.20;99.90;;;;;;5051515;28;20169;-78
2021/03/01 02:05:03;;;;;;;7.28;5.78;;;7.10;99.90;;;;;;5051176;28;20161;-79
2021/03/01 02:07:53;;;;;;;7.43;5.75;;;7.10;99.90;;;;;;5051098;28;20208;-79
2021/03/01 02:10:48;;;;;;;8.82;5.80;;;7.00;99.90;;;;;;5050974;28;20197;-79
2021/03/01 02:13:20;;;;;;;7.30;5.80;;;7.00;99.90;;;;;;5033267;28;20170;-79
2021/03/01 02:16:07;;;;;;;6.60;4.72;;;6.90;99.90;;;;;;5051225;28;20215;-77
2021/03/01 02:18:33;;;;;;;5.72;4.70;;;6.90;99.90;;;;;;5050792;28;20630;-78
2021/03/01 02:21:10;;;;;;;7.40;4.83;;;6.90;99.90;;;;;;5051056;28;20203;-78
2021/03/01 02:23:35;;;;;;;7.57;4.82;;;6.80;99.90;;;;;;5033330;28;20693;-79
2021/03/01 02:26:04;;;;;;;4.80;4.33;;;6.80;99.90;;;;;;5034146;28;20261;-79
2021/03/01 02:28:34;;;;;;;4.60;3.80;;;6.70;99.90;;;;;;5050796;28;21018;-79
2021/03/01 02:31:08;;;;;;;5.60;4.65;;;6.70;99.90;;;;;;5033248;28;20175;-78
2021/03/01 02:33:40;;;;;;;7.00;5.43;;;6.70;99.90;;;;;;5033455;28;20176;-78
2021/03/01 02:36:14;;;;;;;6.35;5.20;;;6.60;99.90;;;;;;5050995;28;20251;-78
2021/03/01 02:38:41;;;;;;;7.85;5.38;;;6.60;99.90;;;;;;5032904;28;20641;-78
2021/03/01 02:41:09;;;;;;;5.15;4.50;;;6.50;99.90;;;;;;5050997;28;20200;-78
2021/03/01 02:43:36;;;;;;;6.22;4.53;;;6.50;99.90;;;;;;5052413;28;20173;-79
2021/03/01 02:46:03;;;;;;;5.38;3.83;;;6.50;99.90;;;;;;5054311;28;20183;-78
2021/03/01 02:48:31;;;;;;;5.22;4.72;;;6.40;99.90;;;;;;5054189;28;20197;-79
2021/03/01 02:50:57;;;;;;;4.97;4.00;;;6.30;99.90;;;;;;5054182;28;20719;-79
2021/03/01 02:53:26;;;;;;;5.15;4.25;;;6.30;99.90;;;;;;5054277;28;20161;-79
2021/03/01 02:55:52;;;;;;;6.57;4.47;;;6.30;99.90;;;;;;5054549;28;20165;-78
2021/03/01 02:58:20;;;;;;;6.10;4.10;;;6.20;99.90;;;;;;5035952;28;20166;-78
2021/03/01 03:00:46;;;;;;;5.70;4.60;;;6.20;99.90;;;;;;5054147;28;20227;-79
2021/03/01 03:03:12;;;;;;;6.30;4.40;;;6.10;99.90;;;;;;5037717;28;20722;-80
2021/03/01 03:05:41;;;;;;;5.45;4.35;;;6.10;99.90;;;;;;5054336;28;20676;-78
2021/03/01 03:08:12;;;;;;;5.35;4.05;;;6.10;99.90;;;;;;5035763;28;20672;-78
2021/03/01 03:10:39;;;;;;;4.28;3.80;;;6.10;99.90;;;;;;5053794;28;20197;-78
2021/03/01 03:13:09;;;;;;;6.65;4.63;;;6.00;99.90;;;;;;5054077;28;20551;-78
2021/03/01 03:15:36;;;;;;;5.57;4.53;;;6.00;99.90;;;;;;5036285;28;20173;-78
2021/03/01 03:18:03;;;;;;;4.80;3.80;;;5.90;99.90;;;;;;5053469;28;20192;-78
2021/03/01 03:20:29;;;;;;;5.40;4.40;;;5.90;99.90;;;;;;5036228;28;20201;-78
2021/03/01 03:22:55;;;;;;;5.20;4.43;;;5.90;99.90;;;;;;5053725;28;20165;-79
2021/03/01 03:25:21;;;;;;;6.87;4.40;;;5.90;99.90;;;;;;5053774;28;20666;-79
2021/03/01 03:27:46;;;;;;;7.47;4.13;;;5.90;99.90;;;;;;5035711;28;21139;-79
2021/03/01 03:30:17;;;;;;;5.63;4.97;;;5.80;99.90;;;;;;5053646;28;20185;-79
2021/03/01 03:32:43;;;;;;;6.85;5.47;;;5.80;99.90;;;;;;5053762;28;20161;-79
2021/03/01 03:35:11;;;;;;;4.88;4.05;;;5.80;99.90;;;;;;5036038;28;20193;-79
2021/03/01 03:37:46;;;;;;;5.32;4.25;;;5.80;99.90;;;;;;5053562;28;20165;-79
2021/03/01 03:40:13;;;;;;;6.40;3.97;;;5.70;99.90;;;;;;5054561;28;20258;-79
2021/03/01 03:42:41;;;;;;;8.13;4.40;;;5.70;99.90;;;;;;5053761;28;20166;-79
2021/03/01 03:45:12;;;;;;;7.38;3.83;;;5.60;99.90;;;;;;5053464;28;20169;-79
2021/03/01 03:47:41;;;;;;;3.88;3.53;;;5.60;99.90;;;;;;5053398;28;20274;-79
2021/03/01 03:50:12;;;;;;;5.85;4.35;;;5.60;99.90;;;;;;5018586;28;20775;-79
2021/03/01 03:52:41;;;;;;;5.85;3.92;;;5.60;99.90;;;;;;5053166;28;20173;-78
2021/03/01 03:55:11;;;;;;;5.85;4.45;;;5.60;99.90;;;;;;5052952;28;20253;-78
2021/03/01 03:57:37;;;;;;;7.25;4.32;;;5.60;99.90;;;;;;5034928;28;20575;-78
2021/03/01 04:00:09;;;;;;;5.90;4.80;;;5.50;99.90;;;;;;5035035;28;20220;-78
2021/03/01 04:02:37;;;;;;;5.40;4.10;;;5.50;99.90;;;;;;5035049;28;20215;-79
2021/03/01 04:05:05;;;;;;;5.43;4.45;;;5.60;99.90;;;;;;5053147;28;20169;-78
2021/03/01 04:07:33;;;;;;;6.32;4.45;;;5.50;99.90;;;;;;5052797;28;20610;-78
2021/03/01 04:10:01;;;;;;;8.77;4.65;;;5.50;99.90;;;;;;5052427;28;20204;-79
2021/03/01 04:12:31;;;;;;;5.55;4.32;;;5.50;99.90;;;;;;5034934;28;20192;-78
2021/03/01 04:14:59;;;;;;;6.78;5.65;;;5.50;99.90;;;;;;5052806;28;20248;-79
2021/03/01 04:17:27;;;;;;;6.38;4.65;;;5.50;99.90;;;;;;5053295;28;20169;-79
2021/03/01 04:19:55;;;;;;;5.28;4.03;;;5.50;99.90;;;;;;5052564;28;20193;-78
2021/03/01 04:22:24;;;;;;;6.15;5.10;;;5.50;99.90;;;;;;5035058;28;20533;-78
2021/03/01 04:24:51;;;;;;;6.60;4.82;;;5.40;99.90;;;;;;5052591;28;20173;-78
2021/03/01 04:27:18;;;;;;;8.23;4.70;;;5.40;99.90;;;;;;5018235;28;20647;-78
2021/03/01 04:29:44;;;;;;;8.25;5.40;;;5.40;99.90;;;;;;5034434;28;20657;-78
2021/03/01 04:32:11;;;;;;;7.40;4.45;;;5.30;99.90;;;;;;5052619;28;20219;-80
2021/03/01 04:34:37;;;;;;;7.13;4.80;;;5.40;99.90;;;;;;5034588;28;20161;-79
2021/03/01 04:37:03;;;;;;;5.07;4.68;;;5.30;99.90;;;;;;5052463;28;20564;-79
2021/03/01 04:39:29;;;;;;;8.40;4.33;;;5.30;99.90;;;;;;5052052;28;20238;-78
2021/03/01 04:41:55;;;;;;;6.65;5.40;;;5.30;99.90;;;;;;5034455;28;20572;-78
2021/03/01 04:44:22;;;;;;;4.45;3.85;;;5.30;99.90;;;;;;5052216;28;20161;-78
2021/03/01 04:46:54;;;;;;;6.00;4.85;;;5.30;99.90;;;;;;5052385;28;20169;-79
2021/03/01 04:49:22;;;;;;;5.05;4.55;;;5.30;99.90;;;;;;5051739;28;20723;-79
2021/03/01 04:51:49;;;;;;;7.15;4.60;;;5.20;99.90;;;;;;5018056;28;20165;-79
2021/03/01 04:54:16;;;;;;;8.20;5.40;;;5.20;99.90;;;;;;5052571;28;20169;-79
2021/03/01 04:56:44;;;;;;;6.80;4.68;;;5.20;99.90;;;;;;5053267;28;20172;-78
2021/03/01 04:59:13;;;;;;;6.57;4.93;;;5.20;99.90;;;;;;5017092;28;20552;-79
2021/03/01 05:01:43;;;;;;;7.32;4.90;;;5.10;99.90;;;;;;5026938;28;20165;-79
2021/03/01 05:04:16;;;;;;;5.65;4.50;;;5.10;99.90;;;;;;5051663;28;20180;-79
2021/03/01 05:06:42;;;;;;;5.28;4.68;;;5.10;99.90;;;;;;5035490;28;20197;-78
2021/03/01 05:09:12;;;;;;;7.10;4.97;;;5.10;99.90;;;;;;5013867;28;20232;-78
2021/03/01 05:11:38;;;;;;;7.93;5.60;;;5.10;99.90;;;;;;5014368;28;20174;-79
2021/03/01 05:14:06;;;;;;;6.68;5.82;;;5.00;99.90;;;;;;5014821;28;20170;-79
2021/03/01 05:16:32;;;;;;;8.02;5.15;;;5.00;99.90;;;;;;5032089;28;20620;-79
2021/03/01 05:18:58;;;;;;;7.40;6.00;;;4.90;99.90;;;;;;5014343;28;20197;-78
2021/03/01 05:21:26;;;;;;;7.75;6.00;;;4.90;99.90;;;;;;5032017;28;20560;-79
2021/03/01 05:23:52;;;;;;;9.02;5.32;;;4.90;99.90;;;;;;5014523;28;20265;-79
2021/03/01 05:26:19;;;;;;;6.55;5.07;;;4.90;99.90;;;;;;5014830;28;20257;-79
2021/03/01 05:28:45;;;;;;;7.30;6.55;;;4.80;99.90;;;;;;5032154;28;20205;-78
2021/03/01 05:31:11;;;;;;;6.10;5.50;;;4.80;99.90;;;;;;5037097;28;20166;-79
2021/03/01 05:33:37;;;;;;;7.85;6.10;;;4.80;99.90;;;;;;5044824;28;20177;-79
2021/03/01 05:36:04;;;;;;;5.13;4.43;;;4.70;99.90;;;;;;5046286;28;20265;-79
2021/03/01 05:38:32;;;;;;;8.07;5.35;;;4.70;99.90;;;;;;5040637;28;20234;-79
2021/03/01 05:41:00;;;;;;;7.95;5.57;;;4.70;99.90;;;;;;5024872;28;20209;-79
2021/03/01 05:43:28;;;;;;;7.05;6.35;;;4.70;99.90;;;;;;5030964;28;20202;-79
2021/03/01 05:45:56;;;;;;;7.88;5.82;;;4.70;99.90;;;;;;5045594;28;20169;-79
2021/03/01 05:48:24;;;;;;;7.38;6.32;;;4.60;99.90;;;;;;5033049;28;20561;-79
2021/03/01 05:50:53;;;;;;;9.40;5.63;;;4.70;99.90;;;;;;5033179;28;20181;-78
2021/03/01 05:53:25;;;;;;;9.70;5.82;;;4.60;99.90;;;;;;5032391;28;20166;-78
2021/03/01 05:55:52;;;;;;;7.07;5.40;;;4.70;99.90;;;;;;5032132;28;20729;-79
2021/03/01 05:58:18;;;;;;;9.82;6.53;;;4.60;99.90;;;;;;5032050;28;20173;-79
2021/03/01 06:00:46;;;;;;;5.40;4.90;;;4.60;99.90;;;;;;5031804;28;20189;-78
2021/03/01 06:03:16;;;;;;;7.35;5.82;;;4.60;99.90;;;;;;5032091;28;20176;-80
2021/03/01 06:05:43;;;;;;;10.38;5.78;;;4.60;99.90;;;;;;5031877;28;20169;-78
2021/03/01 06:08:10;;;;;;;8.53;5.80;;;4.60;99.90;;;;;;5031576;28;20192;-78
2021/03/01 06:10:39;;;;;;;9.13;6.25;;;4.50;99.90;;;;;;5021473;28;20971;-79
2021/03/01 06:13:05;;;;;;;10.57;6.70;;;4.60;99.90;;;;;;4999405;28;20166;-79
2021/03/01 06:15:33;;;;;;;7.43;5.88;;;4.50;99.90;;;;;;5014382;28;20257;-79
2021/03/01 06:18:10;;;;;;;8.73;5.60;;;4.60;99.90;;;;;;5016595;28;20245;-80
2021/03/01 06:20:37;;;;;;;7.60;5.40;;;4.50;99.90;;;;;;5020372;22;20427;-81
2021/03/01 06:23:03;;;;;;;5.32;4.70;;;4.50;99.90;;;;;;5057861;28;20184;-81
2021/03/01 06:25:30;;;;;;;8.68;5.82;;;4.60;99.90;;;;;;5042664;28;20570;-81
2021/03/01 06:27:58;;;;;;;9.38;6.05;;;4.50;99.90;;;;;;5057321;28;20201;-80
2021/03/01 06:30:31;;;;;;;10.32;5.53;;;4.50;99.90;;;;;;5058815;28;20233;-81
2021/03/01 06:33:08;;;;;;;7.35;5.85;;;4.60;99.90;;;;;;5031451;28;20166;-82
2021/03/01 06:36:00;;;;;;;10.18;7.03;;;4.60;99.90;;;;;;5007601;28;20586;-81
2021/03/01 06:38:34;;;;;;;7.38;5.75;;;4.60;99.90;;;;;;5023347;28;20190;-81
2021/03/01 06:41:06;;;;;;;8.70;6.45;;;4.60;99.90;;;;;;5033475;28;20186;-81
2021/03/01 06:43:32;;;;;;;11.30;6.00;;;4.60;99.90;;;;;;5034351;28;20173;-81
2021/03/01 06:46:14;;;;;;;9.85;7.03;;;4.70;99.90;;;;;;5002538;28;20170;-81
2021/03/01 06:48:41;;;;;;;9.45;7.15;;;4.70;99.90;;;;;;5043948;28;20193;-80
2021/03/01 06:51:08;;;;;;;9.77;7.20;;;4.70;99.90;;;;;;5022961;28;20193;-81
2021/03/01 06:53:35;;;;;;;10.70;7.18;;;4.80;99.90;;;;;;5034289;28;20162;-80
2021/03/01 06:56:16;;;;;;;11.60;8.43;;;4.80;99.90;;;;;;5034838;28;20576;-80
2021/03/01 06:58:46;;;;;;;10.00;7.30;;;4.90;99.90;;;;;;5034571;28;20183;-79
2021/03/01 07:01:14;;;;;;;11.52;7.60;;;4.90;99.90;;;;;;5033572;28;20564;-82
2021/03/01 07:03:41;;;;;;;12.30;8.95;;;5.00;99.90;;;;;;5032587;28;20649;-81
2021/03/01 07:06:08;;;;;;;10.00;7.25;;;5.00;99.90;;;;;;5016019;28;20202;-81
2021/03/01 07:08:53;;;;;;;11.75;8.13;;;5.10;99.90;;;;;;5015709;28;20280;-82
2021/03/01 07:11:29;;;;;;;12.32;7.60;;;5.20;99.90;;;;;;5016473;28;20181;-80
2021/03/01 07:14:04;;;;;;;11.38;8.07;;;5.20;99.90;;;;;;5014115;28;20205;-81
2021/03/01 07:16:50;;;;;;;9.45;7.43;;;5.30;99.90;;;;;;4996606;28;20177;-82
2021/03/01 07:19:18;;;;;;;9.07;6.82;;;5.30;99.90;;;;;;5013692;28;20178;-83
2021/03/01 07:21:52;;;;;;;8.55;6.78;;;5.40;99.90;;;;;;4996003;28;20213;-82
2021/03/01 07:24:23;;;;;;;11.15;7.55;;;5.50;99.90;;;;;;4998929;28;20219;-81
2021/03/01 07:26:51;;;;;;;14.07;8.32;;;5.50;99.90;;;;;;4981308;28;20212;-80
2021/03/01 07:29:19;;;;;;;12.38;9.00;;;5.60;99.90;;;;;;5012768;28;20198;-81
2021/03/01 07:31:51;;;;;;;12.68;9.20;;;5.60;99.90;;;;;;5013578;28;20233;-79
2021/03/01 07:34:17;;;;;;;12.00;8.45;;;5.70;99.90;;;;;;5013715;28;20178;-79
2021/03/01 07:36:43;;;;;;;9.75;8.75;;;5.80;99.90;;;;;;5013446;28;20212;-80
2021/03/01 07:39:10;;;;;;;12.50;9.20;;;5.90;99.90;;;;;;5013092;28;20174;-79
2021/03/01 07:41:38;;;;;;;10.52;9.32;;;5.90;99.90;;;;;;4996356;28;20612;-81
2021/03/01 07:44:06;;;;;;;13.73;9.93;;;6.00;99.90;;;;;;5013267;28;20186;-79
2021/03/01 07:46:36;;;;;;;14.15;9.85;;;6.10;99.90;;;;;;5013332;28;20573;-79
2021/03/01 07:49:02;;;;;;;18.42;11.48;;;6.20;99.90;;;;;;4995220;28;20202;-80
2021/03/01 07:51:43;;;;;;;18.85;11.75;;;6.30;99.90;;;;;;4995310;28;20194;-81
2021/03/01 07:54:14;;;;;;;13.68;10.48;;;6.40;99.90;;;;;;4995796;28;20170;-81
2021/03/01 07:56:40;;;;;;;14.88;11.15;;;6.60;99.90;;;;;;5013022;28;20221;-80
2021/03/01 07:59:07;;;;;;;15.90;9.17;;;6.70;99.90;;;;;;5012744;28;20301;-80
2021/03/01 08:01:34;;;;;;;11.70;10.50;;;6.80;99.90;;;;;;5014793;28;20235;-83
2021/03/01 08:04:00;;;;;;;13.15;10.05;;;6.90;99.90;;;;;;5014392;28;20185;-82
2021/03/01 08:06:55;;;;;;;10.82;9.23;;;6.90;99.90;;;;;;4995529;28;20205;-82
2021/03/01 08:09:40;;;;;;;14.52;9.38;;;7.00;99.90;;;;;;5009290;28;20263;-82
2021/03/01 08:12:06;;;;;;;12.60;10.00;;;7.10;99.90;;;;;;5039036;28;20182;-81
2021/03/01 08:14:50;;;;;;;10.77;9.63;;;7.20;99.90;;;;;;5030335;28;20533;-81
2021/03/01 08:17:25;;;;;;;13.57;9.43;;;7.30;99.90;;;;;;5031659;28;20613;-82
2021/03/01 08:19:52;;;;;;;16.73;11.05;;;7.40;99.90;;;;;;5038531;28;20501;-81
2021/03/01 08:22:18;;;;;;;13.27;9.52;;;7.50;99.90;;;;;;5021486;28;20198;-79
2021/03/01 08:24:44;;;;;;;15.07;10.73;;;7.70;99.90;;;;;;5036488;28;20173;-78
2021/03/01 08:27:25;;;;;;;12.77;9.15;;;8.10;99.90;;;;;;5001532;28;20691;-79
2021/03/01 08:30:32;;;;;;;16.55;9.98;;;8.90;99.90;;;;;;4999988;28;20182;-80
2021/03/01 08:33:10;;;;;;;10.52;8.80;;;9.90;99.90;;;;;;5039004;28;20629;-80
2021/03/01 08:35:40;;;;;;;9.50;7.85;;;11.30;99.90;;;;;;5038389;28;20169;-78
2021/03/01 08:38:07;;;;;;;10.87;8.03;;;12.60;99.90;;;;;;5008041;28;20184;-81
2021/03/01 08:40:34;;;;;;;10.20;8.17;;;13.90;99.90;;;;;;5046021;28;20597;-80
2021/03/01 08:43:02;;;;;;;9.07;7.30;;;15.10;99.90;;;;;;5029472;28;20592;-81
2021/03/01 08:45:32;;;;;;;7.37;6.60;;;16.30;99.90;;;;;;5046876;28;20584;-80
2021/03/01 08:48:02;;;;;;;8.80;8.00;;;17.40;99.90;;;;;;5045025;28;21247;-80
2021/03/01 08:50:29;;;;;;;8.00;7.30;;;18.60;99.90;;;;;;5040470;28;20632;-79
2021/03/01 08:52:55;;;;;;;10.63;7.07;;;19.50;99.90;;;;;;5048044;28;20568;-78
2021/03/01 08:55:22;;;;;;;8.30;7.13;;;20.40;99.90;;;;;;5036466;28;20572;-79
2021/03/01 08:58:15;;;;;;;7.37;6.67;;;21.20;99.90;;;;;;5030994;28;20182;-79
2021/03/01 09:01:00;;;;;;;11.23;7.10;;;22.00;99.90;;;;;;5029722;28;20627;-79
2021/03/01 09:03:31;;;;;;;8.70;6.93;;;22.80;99.90;;;;;;5034517;28;20584;-79
2021/03/01 09:06:18;;;;;;;8.57;7.00;;;23.50;99.90;;;;;;5053772;28;20564;-80
2021/03/01 09:08:46;;;;;;;8.87;6.40;;;24.20;99.90;;;;;;5019144;28;20682;-80
2021/03/01 09:11:16;;;;;;;6.67;5.47;;;24.80;99.40;;;;;;5054716;28;20638;-79
2021/03/01 09:13:47;;;;;;;6.43;5.87;;;25.30;97.80;;;;;;5050803;28;20607;-80
2021/03/01 09:16:17;;;;;;;6.20;5.60;;;25.80;95.70;;;;;;5024101;28;20603;-79
2021/03/01 09:18:46;;;;;;;6.40;5.70;;;26.30;93.80;;;;;;5036060;28;20580;-80
2021/03/01 09:21:18;;;;;;;5.10;4.13;;;26.60;92.30;;;;;;5028070;28;20627;-79
2021/03/01 09:23:50;;;;;;;5.77;4.17;;;27.00;90.70;;;;;;5053060;28;20584;-79
2021/03/01 09:26:23;;;;;;;6.80;4.77;;;27.30;88.20;;;;;;5044476;28;20585;-80
2021/03/01 09:28:50;;;;;;;6.17;4.60;;;27.40;77.80;;;;;;5036008;28;20631;-79
2021/03/01 09:31:17;;;;;;;5.20;4.70;;;27.60;78.80;;;;;;5050822;28;20620;-80
2021/03/01 09:33:45;;;;;;;4.90;4.10;;;27.90;76.50;;;;;;5034993;28;20560;-80
2021/03/01 09:36:12;;;;;;;4.53;3.93;;;28.00;73.00;;;;;;5053698;28;20569;-79
2021/03/01 09:38:40;;;;;;;4.67;3.60;;;28.20;71.00;;;;;;5034917;28;20584;-80
2021/03/01 09:41:09;;;;;;;5.73;4.40;;;28.30;69.40;;;;;;5051218;28;20609;-80
2021/03/01 09:43:36;;;;;;;5.07;4.00;;;28.50;68.20;;;;;;5041192;28;20560;-79
2021/03/01 09:46:04;;;;;;;4.20;3.53;;;28.70;66.70;;;;;;5015057;28;20564;-80
2021/03/01 09:48:37;;;;;;;6.00;4.70;;;28.80;65.30;;;;;;5041008;28;20574;-80
2021/03/01 09:51:08;;;;;;;4.63;4.20;;;28.90;64.30;;;;;;5043660;28;20695;-80
2021/03/01 09:53:34;;;;;;;6.00;3.50;;;29.10;61.30;;;;;;5024103;28;20564;-83
2021/03/01 09:56:00;;;;;;;5.73;4.20;;;29.20;61.60;;;;;;5036396;28;20564;-82
2021/03/01 09:58:31;;;;;;;4.00;3.60;;;29.20;59.90;;;;;;5034986;28;20612;-82
2021/03/01 10:01:14;;;;;;;7.93;3.40;;;29.20;58.60;;;;;;5035101;28;20595;-82
2021/03/01 10:03:50;;;;;;;5.63;4.93;;;29.30;52.60;;;;;;5035402;28;20588;-82
2021/03/01 10:06:28;;;;;;;14.93;4.10;;;29.20;56.00;;;;;;5019504;28;21190;-82
2021/03/01 10:09:02;;;;;;;4.53;4.03;;;29.00;55.30;;;;;;5002773;28;21131;-82
2021/03/01 10:11:28;;;;;;;5.57;3.83;;;29.00;54.70;;;;;;5018804;28;20653;-81
2021/03/01 10:14:03;;;;;;;5.90;4.60;;;28.90;54.60;;;;;;5019979;28;20560;-82
2021/03/01 10:16:47;;;;;;;5.20;4.10;;;28.80;53.70;;;;;;5003974;28;20663;-82
2021/03/01 10:19:18;;;;;;;4.63;3.70;;;28.80;54.20;;;;;;5035368;28;20624;-84
2021/03/01 10:21:46;;;;;;;4.20;3.70;;;29.00;53.50;;;;;;5027750;28;20620;-81
2021/03/01 10:24:18;;;;;;;4.27;3.50;;;29.10;54.00;;;;;;5039890;28;20595;-81
2021/03/01 10:26:56;;;;;;;5.43;3.77;;;29.40;53.10;;;;;;5050392;28;20902;-82
2021/03/01 10:29:36;;;;;;;5.90;3.20;;;29.40;52.10;;;;;;5024446;28;21066;-83
2021/03/01 10:32:04;;;;;;;4.93;4.40;;;29.40;51.10;;;;;;5027027;28;20595;-83
2021/03/01 10:34:33;;;;;;;6.70;4.07;;;29.00;50.50;;;;;;5042906;28;20564;-83
2021/03/01 10:36:59;;;;;;;5.60;3.97;;;28.60;51.00;;;;;;5046609;28;20607;-82
2021/03/01 10:39:51;;;;;;;3.63;3.33;;;28.30;49.90;;;;;;5037923;28;20620;-83
2021/03/01 10:42:22;;;;;;;5.40;4.53;;;27.70;42.30;;;;;;5034800;28;20658;-83
2021/03/01 10:45:02;;;;;;;5.40;4.90;;;27.50;49.20;;;;;;5038250;28;20573;-85
2021/03/01 10:47:33;;;;;;;6.30;4.70;;;27.10;45.60;;;;;;5034448;28;20687;-85
2021/03/01 10:50:01;;;;;;;5.40;4.50;;;26.60;47.10;;;;;;5036445;28;20654;-85
2021/03/01 10:52:28;;;;;;;6.30;5.10;;;26.20;48.10;;;;;;5039284;28;21187;-85
2021/03/01 10:54:56;;;;;;;5.77;4.60;;;25.90;48.10;;;;;;5039954;28;20619;-84
2021/03/01 10:57:26;;;;;;;6.20;4.40;;;25.70;48.80;;;;;;5040480;28;20972;-84
2021/03/01 10:59:54;;;;;;;4.73;4.30;;;25.60;49.10;;;;;;5044228;28;21158;-83
2021/03/01 11:02:21;;;;;;;5.43;4.00;;;25.50;48.50;;;;;;5041685;28;20600;-82
2021/03/01 11:04:47;;;;;;;5.97;3.90;;;25.60;48.90;;;;;;5036860;28;20584;-82
2021/03/01 11:07:15;;;;;;;6.20;4.30;;;25.60;49.20;;;;;;5010966;28;21124;-82
2021/03/01 11:09:41;;;;;;;5.27;4.00;;;25.70;49.10;;;;;;5023823;28;21175;-82
2021/03/01 11:12:07;;;;;;;4.50;3.60;;;25.60;47.80;;;;;;5035225;28;20600;-82
2021/03/01 11:14:33;;;;;;;4.83;4.27;;;25.50;48.60;;;;;;5043584;28;20577;-82
2021/03/01 11:16:59;;;;;;;5.40;4.13;;;25.50;48.30;;;;;;5037255;28;21213;-81
2021/03/01 11:19:25;;;;;;;4.80;3.80;;;25.40;48.30;;;;;;5040415;28;21183;-81
2021/03/01 11:21:51;;;;;;;6.13;4.53;;;25.30;47.20;;;;;;5041832;28;20201;-81
2021/03/01 11:24:22;;;;;;;4.37;3.97;;;25.10;46.60;;;;;;5038183;28;20970;-82
2021/03/01 11:26:52;;;;;;;6.40;4.70;;;24.90;46.60;;;;;;5036383;28;20660;-82
2021/03/01 11:29:19;;;;;;;4.00;3.70;;;24.40;45.70;;;;;;5013378;28;20566;-82
2021/03/01 11:31:46;;;;;;;5.07;4.30;;;24.20;46.50;;;;;;5014210;28;20592;-83
2021/03/01 11:34:12;;;;;;;4.53;4.13;;;24.00;45.60;;;;;;5013486;28;20558;-83
2021/03/01 11:36:38;;;;;;;4.80;4.03;;;23.90;46.70;;;;;;4995965;28;20572;-84
2021/03/01 11:39:06;;;;;;;5.57;3.83;;;23.80;46.10;;;;;;4996963;28;20629;-81
2021/03/01 11:41:32;;;;;;;5.50;4.57;;;23.70;46.70;;;;;;5001816;28;20605;-82
2021/03/01 11:43:57;;;;;;;5.70;4.60;;;23.70;47.10;;;;;;5018635;28;20696;-82
2021/03/01 11:46:23;;;;;;;5.87;3.83;;;23.60;45.40;;;;;;5020010;28;20204;-82
2021/03/01 11:48:49;;;;;;;3.83;3.20;;;23.70;46.90;;;;;;5024118;28;20181;-81
2021/03/01 11:51:16;;;;;;;4.43;4.00;;;23.90;47.40;;;;;;5015539;28;20707;-81
2021/03/01 11:53:44;;;;;;;4.97;3.80;;;23.90;46.90;;;;;;5001378;28;20573;-82
2021/03/01 11:56:10;;;;;;;5.00;4.20;;;23.80;46.80;;;;;;5004272;28;21269;-82
2021/03/01 11:58:37;;;;;;;3.80;3.50;;;23.90;46.90;;;;;;5014009;28;20616;-81
2021/03/01 12:01:04;;;;;;;4.30;3.60;;;23.80;46.90;;;;;;5015805;28;20585;-81
2021/03/01 12:03:30;;;;;;;4.80;4.20;;;23.80;46.70;;;;;;4998485;28;20600;-81
2021/03/01 12:05:57;;;;;;;4.63;4.03;;;23.80;45.90;;;;;;4979956;28;20565;-82
2021/03/01 12:08:22;;;;;;;4.30;3.70;;;23.30;44.70;;;;;;5012982;28;20565;-81
2021/03/01 12:10:48;;;;;;;4.80;3.90;;;23.10;45.80;;;;;;4997977;28;21179;-84
2021/03/01 12:13:14;;;;;;;4.20;3.77;;;23.10;46.40;;;;;;5000843;28;20178;-84
2021/03/01 12:15:45;;;;;;;4.73;4.10;;;23.00;46.00;;;;;;5002573;28;20573;-85
2021/03/01 12:18:12;;;;;;;5.97;3.70;;;22.70;45.70;;;;;;5012341;28;20648;-85
2021/03/01 12:20:38;;;;;;;4.80;3.57;;;22.60;46.00;;;;;;5013270;28;20697;-84
2021/03/01 12:23:05;;;;;;;2.93;2.67;;;22.60;46.50;;;;;;4998743;28;20573;-85
2021/03/01 12:25:31;;;;;;;5.00;3.53;;;22.60;46.50;;;;;;4996501;28;20573;-84
2021/03/01 12:27:56;;;;;;;4.93;3.53;;;22.60;46.70;;;;;;5030724;28;20596;-84
2021/03/01 12:30:22;;;;;;;4.87;3.90;;;22.60;46.30;;;;;;5040142;28;20228;-85
2021/03/01 12:32:48;;;;;;;4.03;3.60;;;22.60;45.80;;;;;;5037322;28;20177;-82
2021/03/01 12:35:14;;;;;;;4.50;3.43;;;22.50;46.10;;;;;;5034740;28;20170;-83
2021/03/01 12:37:40;;;;;;;3.97;3.33;;;22.40;45.80;;;;;;5034491;28;20233;-80
2021/03/01 12:40:07;;;;;;;4.20;3.10;;;22.30;46.00;;;;;;5040840;28;20564;-82
2021/03/01 12:42:32;;;;;;;4.13;3.10;;;22.30;46.30;;;;;;5037331;28;20597;-85
2021/03/01 12:44:58;;;;;;;5.67;3.23;;;22.20;45.90;;;;;;5039050;28;20579;-83
2021/03/01 12:47:24;;;;;;;5.50;2.90;;;22.20;46.30;;;;;;5038239;28;20162;-83
2021/03/01 12:49:50;;;;;;;4.50;3.80;;;22.00;45.30;;;;;;5032458;28;20663;-84
2021/03/01 12:52:15;;;;;;;3.80;3.30;;;21.60;44.20;;;;;;5034201;28;20229;-79
2021/03/01 12:54:41;;;;;;;6.57;4.90;;;21.10;43.40;;;;;;5038134;28;20166;-81
2021/03/01 12:57:09;;;;;;;3.50;2.63;;;20.50;43.70;;;;;;5041027;28;20165;-80
2021/03/01 12:59:35;;;;;;;3.90;2.90;;;20.10;43.70;;;;;;5037327;28;20213;-81
2021/03/01 13:02:02;;;;;;;3.70;2.70;;;19.70;44.00;;;;;;5032904;28;20616;-80